Stacy T — WDG2546 — position and weather

sailwx.info

Track history (hours):
 
Tides and Currents Weather Stations Pressure Air Temp Water Temp Dewpoint Dewpoint Depression Visibility Wind Speed Wind Dir Waves Ship Positions

Stacy T

Owner: JT Marine Inc., Vancouver, WA. More information available from US FCC via Universal Licensing System and Coast Guard Vessel Documentation Center.

Last reported at 2018-Jun-25 05:30 UTC. Time now 2018-Jun-25 05:45 UTC.
Position N 45°37' W 122°39'.

Length 30 m; draft 3 m.

Type: Towing. MMSI: 367513274.

Date/timePositionNaut miles runAvg speedWind from/ knotsBaromVisibWave heightAir tempDewpointWater temp
2018-Jun-25 05:30N 45°37' W 122°39'0 0.0
2018-Jun-25 05:00N 45°37' W 122°39'0 0.0
2018-Jun-25 04:30N 45°37' W 122°39'0 0.0
2018-Jun-25 04:00N 45°37' W 122°39'0 0.0
2018-Jun-25 03:30N 45°37' W 122°39'0 0.0
2018-Jun-25 03:00N 45°37' W 122°39'0 0.0
2018-Jun-25 02:30N 45°37' W 122°39'0 0.0
2018-Jun-25 02:00N 45°37' W 122°39'0 0.0
2018-Jun-25 01:17N 45°37' W 122°39'0 0.0
2018-Jun-25 00:58N 45°37' W 122°39'0 0.0
2018-Jun-25 00:30N 45°37' W 122°39'0 0.0
2018-Jun-25 00:00N 45°37' W 122°39'0 0.0
2018-Jun-24 23:30N 45°37' W 122°39'0 0.0
2018-Jun-24 23:00N 45°37' W 122°39'0 0.0
2018-Jun-24 22:30N 45°37' W 122°39'0 0.0
2018-Jun-24 21:59N 45°37' W 122°39'3 6.6
2018-Jun-24 21:30N 45°38' W 122°43'3 6.6
2018-Jun-24 21:00N 45°38' W 122°47'5 9.6
2018-Jun-24 20:30N 45°34' W 122°43'3 6.3
2018-Jun-24 20:00N 45°32' W 122°40'1 2.7
2018-Jun-24 19:30N 45°30' W 122°40'2 4.6
2018-Jun-24 19:00N 45°32' W 122°41'3 6.9
2018-Jun-24 18:31N 45°35' W 122°45'3 6.6
2018-Jun-24 18:00N 45°37' W 122°48'3 5.5
2018-Jun-24 17:30N 45°39' W 122°44'4 8.0
2018-Jun-24 16:59N 45°37' W 122°39'0 0.1
2018-Jun-24 16:30N 45°37' W 122°39'0 0.0
2018-Jun-24 16:00N 45°37' W 122°39'0 0.0
2018-Jun-24 15:30N 45°37' W 122°39'0 0.0
2018-Jun-24 15:01N 45°37' W 122°39'0 0.0
2018-Jun-24 14:30N 45°37' W 122°39'0 0.0
2018-Jun-24 14:01N 45°37' W 122°39'0 0.0
2018-Jun-24 13:30N 45°37' W 122°39'0 0.0
2018-Jun-24 13:00N 45°37' W 122°39'0 0.0
2018-Jun-24 12:30N 45°37' W 122°39'0 0.0
2018-Jun-24 11:59N 45°37' W 122°39'0 0.0
2018-Jun-24 11:31N 45°37' W 122°39'0 0.0
2018-Jun-24 11:00N 45°37' W 122°39'0 0.0
2018-Jun-24 10:30N 45°37' W 122°39'0 0.0
2018-Jun-24 09:59N 45°37' W 122°39'0 0.0
2018-Jun-24 09:31N 45°37' W 122°39'0 0.0
2018-Jun-24 09:00N 45°37' W 122°39'0 0.0
2018-Jun-24 08:29N 45°37' W 122°39'0 0.0
2018-Jun-24 08:01N 45°37' W 122°39'0 0.0
2018-Jun-24 07:30N 45°37' W 122°39'0 0.0
2018-Jun-24 06:43N 45°37' W 122°39'0 0.0
2018-Jun-24 06:30N 45°37' W 122°39'0 0.0
2018-Jun-24 06:00N 45°37' W 122°39'0 0.0
2018-Jun-24 05:27N 45°37' W 122°39'0 0.0
2018-Jun-24 05:00N 45°37' W 122°39'0 0.0
2018-Jun-24 04:28N 45°37' W 122°39'0 0.0
2018-Jun-24 04:00N 45°37' W 122°39'0 0.0
2018-Jun-24 03:30N 45°37' W 122°39'0 0.0
2018-Jun-24 03:00N 45°37' W 122°39'0 0.0
2018-Jun-24 02:14N 45°37' W 122°39'0 0.0
2018-Jun-24 02:00N 45°37' W 122°39'0 0.0
2018-Jun-24 01:12N 45°37' W 122°39'0 0.0
2018-Jun-24 01:01N 45°37' W 122°39'0 0.0
2018-Jun-24 00:30N 45°37' W 122°39'0 0.0
2018-Jun-24 00:00N 45°37' W 122°39'0 0.0
2018-Jun-23 23:30N 45°37' W 122°39'0 0.0
2018-Jun-23 22:49N 45°37' W 122°39'0 0.0
2018-Jun-23 22:31N 45°37' W 122°39'0 0.0
2018-Jun-23 22:00N 45°37' W 122°39'0 0.0
2018-Jun-23 21:30N 45°37' W 122°39'0 0.0
2018-Jun-23 21:01N 45°37' W 122°39'0 0.0
2018-Jun-23 20:31N 45°37' W 122°39'0 0.0
2018-Jun-23 20:00N 45°37' W 122°39'0 0.0
2018-Jun-23 19:31N 45°37' W 122°39'0 0.0
2018-Jun-23 19:00N 45°37' W 122°39'0 0.0
2018-Jun-23 18:29N 45°37' W 122°39'0 0.0
2018-Jun-23 18:00N 45°37' W 122°39'0 0.0
2018-Jun-23 17:29N 45°37' W 122°39'0 0.0
2018-Jun-23 17:00N 45°37' W 122°39'0 0.0
2018-Jun-23 16:29N 45°37' W 122°39'0 0.0
2018-Jun-23 16:00N 45°37' W 122°39'0 0.0
2018-Jun-23 15:30N 45°37' W 122°39'0 0.0
2018-Jun-23 15:00N 45°37' W 122°39'0 0.0
2018-Jun-23 14:30N 45°37' W 122°39'0 0.0
2018-Jun-23 14:01N 45°37' W 122°39'0 0.0
2018-Jun-23 13:31N 45°37' W 122°39'0 0.0
2018-Jun-23 13:00N 45°37' W 122°39'0 0.0
2018-Jun-23 12:30N 45°37' W 122°39'0 0.0
2018-Jun-23 12:01N 45°37' W 122°39'0 0.0
2018-Jun-23 11:28N 45°37' W 122°39'0 0.0
2018-Jun-23 11:00N 45°37' W 122°39'0 0.0
2018-Jun-23 10:28N 45°37' W 122°39'0 0.0
2018-Jun-23 10:00N 45°37' W 122°39'0 0.0
2018-Jun-23 09:31N 45°37' W 122°39'0 0.0
2018-Jun-23 09:00N 45°37' W 122°39'0 0.0
2018-Jun-23 08:30N 45°37' W 122°39'0 0.0
2018-Jun-23 08:00N 45°37' W 122°39'0 0.0
2018-Jun-23 07:31N 45°37' W 122°39'0 0.0
2018-Jun-23 06:59N 45°37' W 122°39'0 0.0
2018-Jun-23 06:30N 45°37' W 122°39'0 0.0
2018-Jun-23 06:01N 45°37' W 122°39'0 0.0
2018-Jun-23 05:30N 45°37' W 122°39'0 0.0
2018-Jun-23 05:01N 45°37' W 122°39'0 0.0
2018-Jun-23 04:18N 45°37' W 122°39'0 0.0
2018-Jun-23 03:55N 45°37' W 122°39'0 0.0
2018-Jun-23 03:30N 45°37' W 122°39'0 0.0
2018-Jun-23 02:47N 45°37' W 122°39'0 0.0
2018-Jun-23 02:30N 45°37' W 122°39'0 0.0
2018-Jun-23 02:01N 45°37' W 122°39'0 0.0
2018-Jun-23 01:30N 45°37' W 122°39'0 0.0
2018-Jun-23 01:00N 45°37' W 122°39'0 0.0
2018-Jun-23 00:30N 45°37' W 122°39'0 0.0
2018-Jun-23 00:00N 45°37' W 122°39'0 0.0
2018-Jun-22 23:30N 45°37' W 122°39'0 0.0
2018-Jun-22 23:00N 45°37' W 122°39'0 0.0
2018-Jun-22 22:31N 45°37' W 122°39'0 0.0
2018-Jun-22 22:01N 45°37' W 122°39'0 0.0
2018-Jun-22 21:30N 45°37' W 122°39'0 0.0
2018-Jun-22 21:00N 45°37' W 122°39'0 0.0
2018-Jun-22 20:30N 45°37' W 122°39'0 0.0
2018-Jun-22 20:00N 45°37' W 122°39'0 0.0
2018-Jun-22 19:31N 45°37' W 122°39'0 0.0
2018-Jun-22 19:00N 45°37' W 122°39'0 0.0
2018-Jun-22 18:30N 45°37' W 122°39'0 0.0
2018-Jun-22 18:00N 45°37' W 122°39'0 0.0
2018-Jun-22 17:30N 45°37' W 122°39'0 0.0
2018-Jun-22 17:01N 45°37' W 122°39'0 0.0
2018-Jun-22 16:30N 45°37' W 122°39'0 0.0
2018-Jun-22 16:00N 45°37' W 122°39'0 0.0
2018-Jun-22 15:30N 45°37' W 122°39'0 0.0
2018-Jun-22 15:00N 45°37' W 122°39'0 0.0
2018-Jun-22 14:30N 45°37' W 122°39'0 0.0
2018-Jun-22 14:01N 45°37' W 122°39'0 0.0
2018-Jun-22 13:30N 45°37' W 122°39'0 0.0
2018-Jun-22 13:00N 45°37' W 122°39'0 0.0
2018-Jun-22 12:27N 45°37' W 122°39'0 0.0
2018-Jun-22 12:00N 45°37' W 122°39'0 0.0
2018-Jun-22 11:30N 45°37' W 122°39'0 0.0
2018-Jun-22 11:00N 45°37' W 122°39'0 0.0
2018-Jun-22 10:30N 45°37' W 122°39'0 0.0
2018-Jun-22 10:01N 45°37' W 122°39'0 0.0
2018-Jun-22 09:30N 45°37' W 122°39'0 0.0
2018-Jun-22 09:00N 45°37' W 122°39'0 0.0
2018-Jun-22 08:22N 45°37' W 122°39'0 0.0
2018-Jun-22 08:00N 45°37' W 122°39'0 0.0
2018-Jun-22 07:31N 45°37' W 122°39'0 0.0
2018-Jun-22 06:59N 45°37' W 122°39'0 0.0
2018-Jun-22 06:30N 45°37' W 122°39'0 0.0
2018-Jun-22 05:43N 45°37' W 122°39'0 0.0
2018-Jun-22 05:30N 45°37' W 122°39'0 0.0
2018-Jun-22 05:00N 45°37' W 122°39'0 0.0
2018-Jun-22 04:30N 45°37' W 122°39'0 0.0
2018-Jun-22 04:00N 45°37' W 122°39'0 0.0
2018-Jun-22 03:30N 45°37' W 122°39'0 0.0
2018-Jun-22 03:01N 45°37' W 122°39'0 0.0
2018-Jun-22 02:29N 45°37' W 122°39'0 0.0
2018-Jun-22 02:00N 45°37' W 122°39'0 0.0
2018-Jun-22 01:30N 45°37' W 122°39'0 0.0
2018-Jun-22 00:59N 45°37' W 122°39'0 0.0
2018-Jun-22 00:30N 45°37' W 122°39'0 0.0
2018-Jun-22 00:01N 45°37' W 122°39'0 0.0
2018-Jun-21 23:30N 45°37' W 122°39'0 0.0
2018-Jun-21 23:00N 45°37' W 122°39'0 0.0
2018-Jun-21 22:31N 45°37' W 122°39'0 0.0
2018-Jun-21 22:00N 45°37' W 122°39'0 0.0
2018-Jun-21 21:31N 45°37' W 122°39'0 0.0
2018-Jun-21 21:01N 45°37' W 122°39'0 0.0
2018-Jun-21 20:30N 45°37' W 122°39'0 0.0
2018-Jun-21 20:00N 45°37' W 122°39'0 0.0
2018-Jun-21 19:30N 45°37' W 122°39'0 0.0
2018-Jun-21 19:00N 45°37' W 122°39'0 0.0
2018-Jun-21 18:29N 45°37' W 122°39'0 0.0
2018-Jun-21 18:00N 45°37' W 122°39'0 0.0
2018-Jun-21 17:30N 45°37' W 122°39'0 0.0
2018-Jun-21 17:00N 45°37' W 122°39'0 0.0
2018-Jun-21 16:29N 45°37' W 122°39'0 0.0
2018-Jun-21 16:00N 45°37' W 122°39'0 0.0
2018-Jun-21 15:30N 45°37' W 122°39'0 0.0
2018-Jun-21 15:00N 45°37' W 122°39'0 0.0
2018-Jun-21 14:31N 45°37' W 122°39'0 0.0
2018-Jun-21 14:00N 45°37' W 122°39'0 0.0
2018-Jun-21 13:31N 45°37' W 122°39'0 0.0
2018-Jun-21 13:00N 45°37' W 122°39'0 0.0
2018-Jun-21 12:30N 45°37' W 122°39'0 0.0
2018-Jun-21 11:43N 45°37' W 122°39'0 0.0
2018-Jun-21 11:30N 45°37' W 122°39'0 0.0
2018-Jun-21 11:00N 45°37' W 122°39'0 0.0
2018-Jun-21 10:31N 45°37' W 122°39'0 0.0
2018-Jun-21 10:00N 45°37' W 122°39'0 0.0
2018-Jun-21 09:30N 45°37' W 122°39'0 0.0
2018-Jun-21 08:49N 45°37' W 122°39'0 0.0
2018-Jun-21 08:29N 45°37' W 122°39'0 0.0
2018-Jun-21 08:00N 45°37' W 122°39'0 0.0
2018-Jun-21 07:31N 45°37' W 122°39'0 0.0
2018-Jun-21 06:59N 45°37' W 122°39'0 0.0
2018-Jun-21 06:30N 45°37' W 122°39'0 0.0
2018-Jun-21 05:49N 45°37' W 122°39'0 0.0
2018-Jun-21 05:31N 45°37' W 122°39'0 0.0
2018-Jun-21 05:00N 45°37' W 122°39'0 0.0
2018-Jun-21 04:30N 45°37' W 122°39'0 0.0
2018-Jun-21 04:01N 45°37' W 122°39'0 0.0
2018-Jun-21 03:24N 45°37' W 122°39'0 0.0
2018-Jun-21 03:00N 45°37' W 122°39'0 0.0
2018-Jun-21 02:30N 45°37' W 122°39'0 0.0
2018-Jun-21 01:52N 45°37' W 122°39'0 0.0
2018-Jun-21 01:28N 45°37' W 122°39'0 0.0
2018-Jun-21 00:59N 45°37' W 122°39'0 0.0
2018-Jun-21 00:30N 45°37' W 122°39'0 0.0
2018-Jun-20 23:54N 45°37' W 122°39'0 0.0
2018-Jun-20 23:27N 45°37' W 122°39'0 0.0
2018-Jun-20 22:54N 45°37' W 122°39'0 0.0
2018-Jun-20 22:23N 45°37' W 122°39'0 0.0
2018-Jun-20 21:57N 45°37' W 122°39'0 0.0
2018-Jun-20 21:28N 45°37' W 122°39'0 0.0
2018-Jun-20 21:00N 45°37' W 122°39'0 0.0
2018-Jun-20 20:29N 45°37' W 122°39'0 0.0
2018-Jun-20 19:58N 45°37' W 122°39'0 0.0
2018-Jun-20 19:26N 45°37' W 122°39'0 0.0
2018-Jun-20 19:00N 45°37' W 122°39'0 0.0
2018-Jun-20 18:30N 45°37' W 122°39'0 0.0
2018-Jun-20 18:00N 45°37' W 122°39'0 0.0
2018-Jun-20 17:30N 45°37' W 122°39'0 0.0
2018-Jun-20 16:58N 45°37' W 122°39'0 0.0
2018-Jun-20 16:24N 45°37' W 122°39'0 0.0
2018-Jun-20 15:56N 45°37' W 122°39'0 0.0
2018-Jun-20 15:23N 45°37' W 122°39'0 0.0
2018-Jun-20 14:59N 45°37' W 122°39'0 0.0
2018-Jun-20 14:29N 45°37' W 122°39'0 0.0
2018-Jun-20 14:00N 45°37' W 122°39'0 0.0
2018-Jun-20 13:30N 45°37' W 122°39'0 0.0
2018-Jun-20 12:57N 45°37' W 122°39'0 0.0
2018-Jun-20 12:24N 45°37' W 122°39'0 0.0
2018-Jun-20 11:59N 45°37' W 122°39'0 0.0
2018-Jun-20 11:28N 45°37' W 122°39'0 0.0
2018-Jun-20 10:46N 45°37' W 122°39'0 0.0
2018-Jun-20 10:30N 45°37' W 122°39'0 0.0
2018-Jun-20 09:58N 45°37' W 122°39'0 0.0
2018-Jun-20 09:30N 45°37' W 122°39'0 0.0
2018-Jun-20 09:00N 45°37' W 122°39'0 0.0
2018-Jun-20 08:30N 45°37' W 122°39'0 0.0
2018-Jun-20 08:01N 45°37' W 122°39'0 0.0
2018-Jun-20 07:30N 45°37' W 122°39'0 0.0
2018-Jun-20 06:59N 45°37' W 122°39'0 0.0
2018-Jun-20 05:35N 45°37' W 122°39'0 0.0
2018-Jun-20 05:30N 45°37' W 122°39'0 0.0
2018-Jun-20 05:00N 45°37' W 122°39'0 0.0
2018-Jun-20 04:31N 45°37' W 122°39'0 0.0
2018-Jun-20 04:00N 45°37' W 122°39'0 0.0
2018-Jun-20 03:27N 45°37' W 122°39'0 0.0
2018-Jun-20 03:00N 45°37' W 122°39'0 0.0
2018-Jun-20 02:30N 45°37' W 122°39'0 0.0
2018-Jun-20 02:00N 45°37' W 122°39'0 0.0
2018-Jun-20 01:30N 45°37' W 122°39'0 0.0
2018-Jun-20 01:00N 45°37' W 122°39'0 0.0
2018-Jun-20 00:30N 45°37' W 122°39'0 0.0
2018-Jun-20 00:00N 45°37' W 122°39'0 0.0
2018-Jun-19 23:29N 45°37' W 122°39'0 0.0
2018-Jun-19 22:59N 45°37' W 122°39'0 0.0
2018-Jun-19 22:30N 45°37' W 122°39'0 0.0
2018-Jun-19 22:00N 45°37' W 122°39'0 0.0
2018-Jun-19 21:30N 45°37' W 122°39'0 0.0
2018-Jun-19 21:00N 45°37' W 122°39'0 0.0
2018-Jun-19 20:29N 45°37' W 122°39'0 0.0
2018-Jun-19 20:00N 45°37' W 122°39'0 0.0
2018-Jun-19 19:30N 45°37' W 122°39'0 0.0
2018-Jun-19 18:59N 45°37' W 122°39'0 0.0
2018-Jun-19 18:30N 45°37' W 122°39'0 0.0
2018-Jun-19 17:55N 45°37' W 122°39'0 0.0
2018-Jun-19 17:31N 45°37' W 122°39'0 0.0
2018-Jun-19 17:01N 45°37' W 122°39'0 0.0
2018-Jun-19 16:07N 45°37' W 122°39'0 0.0
2018-Jun-19 16:00N 45°37' W 122°39'0 0.0
2018-Jun-19 15:22N 45°37' W 122°39'0 0.0
2018-Jun-19 15:00N 45°37' W 122°39'0 0.0
2018-Jun-19 14:26N 45°37' W 122°39'0 0.0
2018-Jun-19 14:00N 45°37' W 122°39'0 0.0
2018-Jun-19 13:30N 45°37' W 122°39'0 0.0
2018-Jun-19 13:00N 45°37' W 122°39'0 0.0
2018-Jun-19 12:30N 45°37' W 122°39'0 0.0
2018-Jun-19 12:01N 45°37' W 122°39'0 0.0
2018-Jun-19 11:28N 45°37' W 122°39'0 0.0
2018-Jun-19 10:59N 45°37' W 122°39'0 0.0
2018-Jun-19 10:29N 45°37' W 122°39'0 0.0
2018-Jun-19 10:00N 45°37' W 122°39'0 0.0
2018-Jun-19 09:30N 45°37' W 122°39'0 0.0
2018-Jun-19 09:00N 45°37' W 122°39'0 0.0
2018-Jun-19 08:30N 45°37' W 122°39'0 0.0
2018-Jun-19 07:59N 45°37' W 122°39'0 0.0
2018-Jun-19 07:30N 45°37' W 122°39'0 0.0
2018-Jun-19 07:00N 45°37' W 122°39'0 0.0
2018-Jun-19 06:30N 45°37' W 122°39'0 0.0
2018-Jun-19 06:01N 45°37' W 122°39'0 0.0
2018-Jun-19 05:30N 45°37' W 122°39'0 0.0
2018-Jun-19 05:00N 45°37' W 122°39'0 0.0
2018-Jun-19 04:29N 45°37' W 122°39'0 0.0
2018-Jun-19 04:00N 45°37' W 122°39'0 0.0
2018-Jun-19 03:31N 45°37' W 122°39'0 0.0
2018-Jun-19 03:01N 45°37' W 122°39'0 0.0
2018-Jun-19 02:30N 45°37' W 122°39'0 0.0
2018-Jun-19 02:00N 45°37' W 122°39'0 0.0
2018-Jun-19 01:30N 45°37' W 122°39'0 0.0
2018-Jun-19 01:00N 45°37' W 122°39'0 0.0
2018-Jun-19 00:29N 45°37' W 122°39'0 0.0
2018-Jun-19 00:00N 45°37' W 122°39'0 0.0
2018-Jun-18 23:31N 45°37' W 122°39'0 0.0
2018-Jun-18 22:59N 45°37' W 122°39'0 0.0
2018-Jun-18 22:30N 45°37' W 122°39'0 0.0
2018-Jun-18 22:00N 45°37' W 122°39'0 0.0
2018-Jun-18 21:30N 45°37' W 122°39'0 0.0
2018-Jun-18 21:01N 45°37' W 122°39'0 0.0
2018-Jun-18 20:30N 45°37' W 122°39'0 0.0
2018-Jun-18 20:00N 45°37' W 122°39'0 0.0
2018-Jun-18 19:30N 45°37' W 122°39'0 0.0
2018-Jun-18 19:00N 45°37' W 122°39'0 0.0
2018-Jun-18 18:30N 45°37' W 122°39'0 0.0
2018-Jun-18 18:00N 45°37' W 122°39'0 0.0
2018-Jun-18 17:20N 45°37' W 122°39'0 0.0
2018-Jun-18 16:59N 45°37' W 122°39'0 0.0
2018-Jun-18 16:30N 45°37' W 122°39'0 0.0
2018-Jun-18 16:00N 45°37' W 122°39'0 0.0
2018-Jun-18 15:30N 45°37' W 122°39'0 0.0
2018-Jun-18 15:00N 45°37' W 122°39'0 0.0
2018-Jun-18 14:31N 45°37' W 122°39'0 0.0
2018-Jun-18 14:00N 45°37' W 122°39'0 0.0
2018-Jun-18 13:31N 45°37' W 122°39'0 0.0
2018-Jun-18 13:00N 45°37' W 122°39'0 0.0
2018-Jun-18 12:30N 45°37' W 122°39'0 0.0
2018-Jun-18 12:00N 45°37' W 122°39'0 0.0
2018-Jun-18 11:30N 45°37' W 122°39'0 0.0
2018-Jun-18 11:00N 45°37' W 122°39'0 0.0
2018-Jun-18 10:31N 45°37' W 122°39'0 0.0
2018-Jun-18 10:00N 45°37' W 122°39'0 0.0
2018-Jun-18 09:23N 45°37' W 122°39'0 0.0
2018-Jun-18 09:00N 45°37' W 122°39'0 0.0
2018-Jun-18 08:30N 45°37' W 122°39'0 0.0
2018-Jun-18 08:00N 45°37' W 122°39'0 0.0
2018-Jun-18 07:30N 45°37' W 122°39'0 0.0
2018-Jun-18 06:59N 45°37' W 122°39'0 0.0
2018-Jun-18 06:30N 45°37' W 122°39'0 0.0
2018-Jun-18 06:01N 45°37' W 122°39'0 0.0
2018-Jun-18 05:30N 45°37' W 122°39'0 0.0
2018-Jun-18 05:00N 45°37' W 122°39'0 0.0
2018-Jun-18 04:30N 45°37' W 122°39'0 0.0
2018-Jun-18 04:00N 45°37' W 122°39'0 0.0
2018-Jun-18 03:30N 45°37' W 122°39'0 0.0
2018-Jun-18 02:59N 45°37' W 122°39'0 0.0
2018-Jun-18 02:06N 45°37' W 122°39'0 0.0
2018-Jun-18 02:00N 45°37' W 122°39'0 0.0
2018-Jun-18 01:30N 45°37' W 122°39'0 0.0
2018-Jun-18 01:01N 45°37' W 122°39'0 0.0
2018-Jun-18 00:30N 45°37' W 122°39'0 0.0
2018-Jun-18 00:00N 45°37' W 122°39'0 0.0
2018-Jun-17 23:29N 45°37' W 122°39'0 0.0
2018-Jun-17 22:56N 45°37' W 122°39'0 0.0
2018-Jun-17 22:30N 45°37' W 122°39'0 0.0
2018-Jun-17 22:01N 45°37' W 122°39'0 0.0
2018-Jun-17 21:21N 45°37' W 122°39'0 0.0
2018-Jun-17 20:57N 45°37' W 122°39'0 0.0
2018-Jun-17 20:30N 45°37' W 122°39'0 0.0
2018-Jun-17 20:01N 45°37' W 122°39'0 0.0
2018-Jun-17 19:29N 45°37' W 122°39'0 0.0
2018-Jun-17 19:00N 45°37' W 122°39'0 0.0
2018-Jun-17 18:30N 45°37' W 122°39'0 0.0
2018-Jun-17 17:59N 45°37' W 122°39'0 0.0
2018-Jun-17 17:30N 45°37' W 122°39'0 0.0
2018-Jun-17 17:00N 45°37' W 122°39'0 0.0
2018-Jun-17 16:29N 45°37' W 122°39'0 0.0
2018-Jun-17 15:56N 45°37' W 122°39'0 0.0
2018-Jun-17 15:28N 45°37' W 122°39'0 0.0
2018-Jun-17 14:59N 45°37' W 122°39'0 0.0
2018-Jun-17 14:31N 45°37' W 122°39'0 0.0
2018-Jun-17 14:01N 45°37' W 122°39'0 0.0
2018-Jun-17 13:30N 45°37' W 122°39'0 0.0
2018-Jun-17 13:00N 45°37' W 122°39'0 0.0
2018-Jun-17 12:30N 45°37' W 122°39'0 0.0
2018-Jun-17 11:59N 45°37' W 122°39'0 0.0
2018-Jun-17 11:30N 45°37' W 122°39'0 0.0
2018-Jun-17 10:59N 45°37' W 122°39'0 0.0
2018-Jun-17 10:30N 45°37' W 122°39'0 0.0
2018-Jun-17 09:44N 45°37' W 122°39'0 0.0
2018-Jun-17 09:31N 45°37' W 122°39'0 0.0
2018-Jun-17 09:00N 45°37' W 122°39'0 0.0
2018-Jun-17 08:30N 45°37' W 122°39'0 0.0
2018-Jun-17 08:00N 45°37' W 122°39'0 0.0
2018-Jun-17 07:30N 45°37' W 122°39'0 0.0
2018-Jun-17 06:59N 45°37' W 122°39'0 0.0
2018-Jun-17 06:31N 45°37' W 122°39'0 0.0
2018-Jun-17 06:00N 45°37' W 122°39'0 0.0
2018-Jun-17 05:31N 45°37' W 122°39'0 0.0
2018-Jun-17 05:00N 45°37' W 122°39'0 0.0
2018-Jun-17 04:30N 45°37' W 122°39'0 0.0
2018-Jun-17 04:00N 45°37' W 122°39'0 0.0
2018-Jun-17 03:29N 45°37' W 122°39'0 0.0
2018-Jun-17 03:00N 45°37' W 122°39'0 0.0
2018-Jun-17 02:30N 45°37' W 122°39'0 0.0
2018-Jun-17 02:00N 45°37' W 122°39'0 0.0
2018-Jun-17 01:31N 45°37' W 122°39'0 0.0
2018-Jun-17 01:01N 45°37' W 122°39'0 0.0
2018-Jun-17 00:31N 45°37' W 122°39'0 0.0
2018-Jun-17 00:00N 45°37' W 122°39'0 0.0
2018-Jun-16 23:30N 45°37' W 122°39'0 0.0
2018-Jun-16 23:00N 45°37' W 122°39'0 0.0
2018-Jun-16 22:30N 45°37' W 122°39'0 0.0
2018-Jun-16 22:00N 45°37' W 122°39'0 0.0
2018-Jun-16 21:31N 45°37' W 122°39'0 0.0
2018-Jun-16 21:00N 45°37' W 122°39'0 0.0
2018-Jun-16 20:30N 45°37' W 122°39'0 0.0
2018-Jun-16 20:00N 45°37' W 122°39'0 0.0
2018-Jun-16 19:28N 45°37' W 122°39'0 0.0
2018-Jun-16 19:00N 45°37' W 122°39'0 0.0
2018-Jun-16 18:30N 45°37' W 122°39'0 0.0
2018-Jun-16 18:00N 45°37' W 122°39'0 0.0
2018-Jun-16 17:30N 45°37' W 122°39'0 0.0
2018-Jun-16 17:00N 45°37' W 122°39'0 0.0
2018-Jun-16 16:31N 45°37' W 122°39'0 0.0
2018-Jun-16 16:00N 45°37' W 122°39'0 0.0
2018-Jun-16 15:30N 45°37' W 122°39'0 0.0
2018-Jun-16 15:01N 45°37' W 122°39'0 0.0
2018-Jun-16 14:31N 45°37' W 122°39'0 0.0
2018-Jun-16 14:00N 45°37' W 122°39'0 0.0
2018-Jun-16 13:30N 45°37' W 122°39'0 0.0
2018-Jun-16 13:00N 45°37' W 122°39'0 0.0
2018-Jun-16 12:30N 45°37' W 122°39'0 0.0
2018-Jun-16 12:00N 45°37' W 122°39'0 0.0
2018-Jun-16 11:30N 45°37' W 122°39'0 0.0
2018-Jun-16 11:00N 45°37' W 122°39'0 0.0
2018-Jun-16 10:30N 45°37' W 122°39'0 0.0
2018-Jun-16 10:00N 45°37' W 122°39'0 0.0
2018-Jun-16 09:30N 45°37' W 122°39'0 0.0
2018-Jun-16 09:00N 45°37' W 122°39'0 0.0
2018-Jun-16 08:30N 45°37' W 122°39'0 0.0
2018-Jun-16 08:01N 45°37' W 122°39'0 0.0
2018-Jun-16 07:31N 45°37' W 122°39'0 0.0
2018-Jun-16 06:59N 45°37' W 122°39'0 0.0
2018-Jun-16 06:30N 45°37' W 122°39'0 0.0
2018-Jun-16 06:00N 45°37' W 122°39'0 0.0
2018-Jun-16 05:30N 45°37' W 122°39'0 0.0
2018-Jun-16 05:00N 45°37' W 122°39'0 0.0
2018-Jun-16 04:28N 45°37' W 122°39'0 0.0
2018-Jun-16 03:51N 45°37' W 122°39'0 0.0
2018-Jun-16 03:30N 45°37' W 122°39'0 0.0
2018-Jun-16 03:00N 45°37' W 122°39'0 0.0
2018-Jun-16 02:30N 45°37' W 122°39'0 0.0
2018-Jun-16 01:53N 45°37' W 122°39'0 0.0
2018-Jun-16 01:30N 45°37' W 122°39'0 0.0
2018-Jun-16 01:00N 45°37' W 122°39'0 0.0
2018-Jun-16 00:30N 45°37' W 122°39'0 0.0
2018-Jun-16 00:00N 45°37' W 122°39'0 0.0
2018-Jun-15 23:31N 45°37' W 122°39'0 0.0
2018-Jun-15 23:00N 45°37' W 122°39'1 2.0
2018-Jun-15 22:31N 45°37' W 122°40'2 3.5
2018-Jun-15 22:00N 45°38' W 122°42'3 5.2
2018-Jun-15 21:30N 45°39' W 122°45'3 5.7
2018-Jun-15 21:00N 45°37' W 122°47'3 6.8
2018-Jun-15 20:30N 45°34' W 122°44'3 6.7
2018-Jun-15 20:01N 45°32' W 122°40'2 3.3
2018-Jun-15 19:30N 45°30' W 122°40'0 0.2
2018-Jun-15 19:00N 45°30' W 122°40'2 4.5
2018-Jun-15 18:30N 45°32' W 122°41'4 8.0
2018-Jun-15 18:01N 45°35' W 122°45'4 7.8
2018-Jun-15 17:30N 45°39' W 122°47'4 8.9
2018-Jun-15 17:00N 45°37' W 122°41'1 2.6
2018-Jun-15 16:30N 45°37' W 122°39'0 0.0
2018-Jun-15 15:51N 45°37' W 122°39'0 0.0
2018-Jun-15 15:30N 45°37' W 122°39'0 0.0
2018-Jun-15 15:00N 45°37' W 122°39'0 0.0
2018-Jun-15 14:30N 45°37' W 122°39'0 0.0
2018-Jun-15 14:01N 45°37' W 122°39'0 0.0
2018-Jun-15 13:30N 45°37' W 122°39'0 0.0
2018-Jun-15 13:00N 45°37' W 122°39'0 0.0
2018-Jun-15 12:30N 45°37' W 122°39'0 0.0
2018-Jun-15 11:49N 45°37' W 122°39'0 0.0
2018-Jun-15 11:30N 45°37' W 122°39'0 0.0
2018-Jun-15 11:00N 45°37' W 122°39'0 0.0
2018-Jun-15 10:30N 45°37' W 122°39'0 0.0
2018-Jun-15 09:37N 45°37' W 122°39'0 0.0
2018-Jun-15 09:30N 45°37' W 122°39'0 0.0
2018-Jun-15 09:00N 45°37' W 122°39'0 0.0
2018-Jun-15 08:30N 45°37' W 122°39'0 0.0
2018-Jun-15 08:00N 45°37' W 122°39'0 0.0
2018-Jun-15 07:19N 45°37' W 122°39'0 0.0
2018-Jun-15 06:59N 45°37' W 122°39'0 0.0
2018-Jun-15 06:30N 45°37' W 122°39'0 0.0
2018-Jun-15 06:00N 45°37' W 122°39'0 0.0
2018-Jun-15 05:30N 45°37' W 122°39'  
Track history (hours):
 
Tides and Currents Weather Stations Pressure Air Temp Water Temp Dewpoint Dewpoint Depression Visibility Wind Speed Wind Dir Waves Ship Positions

Stacy T

Owner: JT Marine Inc., Vancouver, WA. More information available from US FCC via Universal Licensing System and Coast Guard Vessel Documentation Center.

Last reported at 2018-Jun-25 05:30 UTC. Time now 2018-Jun-25 05:45 UTC.
Position N 45°37' W 122°39'.

Length 30 m; draft 3 m.

Type: Towing. MMSI: 367513274.

Date/timePositionNaut miles runAvg speedWind from/ knotsBaromVisibWave heightAir tempDewpointWater temp
2018-Jun-25 05:30N 45°37' W 122°39'0 0.0
2018-Jun-25 05:00N 45°37' W 122°39'0 0.0
2018-Jun-25 04:30N 45°37' W 122°39'0 0.0
2018-Jun-25 04:00N 45°37' W 122°39'0 0.0
2018-Jun-25 03:30N 45°37' W 122°39'0 0.0
2018-Jun-25 03:00N 45°37' W 122°39'0 0.0
2018-Jun-25 02:30N 45°37' W 122°39'0 0.0
2018-Jun-25 02:00N 45°37' W 122°39'0 0.0
2018-Jun-25 01:17N 45°37' W 122°39'0 0.0
2018-Jun-25 00:58N 45°37' W 122°39'0 0.0
2018-Jun-25 00:30N 45°37' W 122°39'0 0.0
2018-Jun-25 00:00N 45°37' W 122°39'0 0.0
2018-Jun-24 23:30N 45°37' W 122°39'0 0.0
2018-Jun-24 23:00N 45°37' W 122°39'0 0.0
2018-Jun-24 22:30N 45°37' W 122°39'0 0.0
2018-Jun-24 21:59N 45°37' W 122°39'3 6.6
2018-Jun-24 21:30N 45°38' W 122°43'3 6.6
2018-Jun-24 21:00N 45°38' W 122°47'5 9.6
2018-Jun-24 20:30N 45°34' W 122°43'3 6.3
2018-Jun-24 20:00N 45°32' W 122°40'1 2.7
2018-Jun-24 19:30N 45°30' W 122°40'2 4.6
2018-Jun-24 19:00N 45°32' W 122°41'3 6.9
2018-Jun-24 18:31N 45°35' W 122°45'3 6.6
2018-Jun-24 18:00N 45°37' W 122°48'3 5.5
2018-Jun-24 17:30N 45°39' W 122°44'4 8.0
2018-Jun-24 16:59N 45°37' W 122°39'0 0.1
2018-Jun-24 16:30N 45°37' W 122°39'0 0.0
2018-Jun-24 16:00N 45°37' W 122°39'0 0.0
2018-Jun-24 15:30N 45°37' W 122°39'0 0.0
2018-Jun-24 15:01N 45°37' W 122°39'0 0.0
2018-Jun-24 14:30N 45°37' W 122°39'0 0.0
2018-Jun-24 14:01N 45°37' W 122°39'0 0.0
2018-Jun-24 13:30N 45°37' W 122°39'0 0.0
2018-Jun-24 13:00N 45°37' W 122°39'0 0.0
2018-Jun-24 12:30N 45°37' W 122°39'0 0.0
2018-Jun-24 11:59N 45°37' W 122°39'0 0.0
2018-Jun-24 11:31N 45°37' W 122°39'0 0.0
2018-Jun-24 11:00N 45°37' W 122°39'0 0.0
2018-Jun-24 10:30N 45°37' W 122°39'0 0.0
2018-Jun-24 09:59N 45°37' W 122°39'0 0.0
2018-Jun-24 09:31N 45°37' W 122°39'0 0.0
2018-Jun-24 09:00N 45°37' W 122°39'0 0.0
2018-Jun-24 08:29N 45°37' W 122°39'0 0.0
2018-Jun-24 08:01N 45°37' W 122°39'0 0.0
2018-Jun-24 07:30N 45°37' W 122°39'0 0.0
2018-Jun-24 06:43N 45°37' W 122°39'0 0.0
2018-Jun-24 06:30N 45°37' W 122°39'0 0.0
2018-Jun-24 06:00N 45°37' W 122°39'0 0.0
2018-Jun-24 05:27N 45°37' W 122°39'0 0.0
2018-Jun-24 05:00N 45°37' W 122°39'0 0.0
2018-Jun-24 04:28N 45°37' W 122°39'0 0.0
2018-Jun-24 04:00N 45°37' W 122°39'0 0.0
2018-Jun-24 03:30N 45°37' W 122°39'0 0.0
2018-Jun-24 03:00N 45°37' W 122°39'0 0.0
2018-Jun-24 02:14N 45°37' W 122°39'0 0.0
2018-Jun-24 02:00N 45°37' W 122°39'0 0.0
2018-Jun-24 01:12N 45°37' W 122°39'0 0.0
2018-Jun-24 01:01N 45°37' W 122°39'0 0.0
2018-Jun-24 00:30N 45°37' W 122°39'0 0.0
2018-Jun-24 00:00N 45°37' W 122°39'0 0.0
2018-Jun-23 23:30N 45°37' W 122°39'0 0.0
2018-Jun-23 22:49N 45°37' W 122°39'0 0.0
2018-Jun-23 22:31N 45°37' W 122°39'0 0.0
2018-Jun-23 22:00N 45°37' W 122°39'0 0.0
2018-Jun-23 21:30N 45°37' W 122°39'0 0.0
2018-Jun-23 21:01N 45°37' W 122°39'0 0.0
2018-Jun-23 20:31N 45°37' W 122°39'0 0.0
2018-Jun-23 20:00N 45°37' W 122°39'0 0.0
2018-Jun-23 19:31N 45°37' W 122°39'0 0.0
2018-Jun-23 19:00N 45°37' W 122°39'0 0.0
2018-Jun-23 18:29N 45°37' W 122°39'0 0.0
2018-Jun-23 18:00N 45°37' W 122°39'0 0.0
2018-Jun-23 17:29N 45°37' W 122°39'0 0.0
2018-Jun-23 17:00N 45°37' W 122°39'0 0.0
2018-Jun-23 16:29N 45°37' W 122°39'0 0.0
2018-Jun-23 16:00N 45°37' W 122°39'0 0.0
2018-Jun-23 15:30N 45°37' W 122°39'0 0.0
2018-Jun-23 15:00N 45°37' W 122°39'0 0.0
2018-Jun-23 14:30N 45°37' W 122°39'0 0.0
2018-Jun-23 14:01N 45°37' W 122°39'0 0.0
2018-Jun-23 13:31N 45°37' W 122°39'0 0.0
2018-Jun-23 13:00N 45°37' W 122°39'0 0.0
2018-Jun-23 12:30N 45°37' W 122°39'0 0.0
2018-Jun-23 12:01N 45°37' W 122°39'0 0.0
2018-Jun-23 11:28N 45°37' W 122°39'0 0.0
2018-Jun-23 11:00N 45°37' W 122°39'0 0.0
2018-Jun-23 10:28N 45°37' W 122°39'0 0.0
2018-Jun-23 10:00N 45°37' W 122°39'0 0.0
2018-Jun-23 09:31N 45°37' W 122°39'0 0.0
2018-Jun-23 09:00N 45°37' W 122°39'0 0.0
2018-Jun-23 08:30N 45°37' W 122°39'0 0.0
2018-Jun-23 08:00N 45°37' W 122°39'0 0.0
2018-Jun-23 07:31N 45°37' W 122°39'0 0.0
2018-Jun-23 06:59N 45°37' W 122°39'0 0.0
2018-Jun-23 06:30N 45°37' W 122°39'0 0.0
2018-Jun-23 06:01N 45°37' W 122°39'0 0.0
2018-Jun-23 05:30N 45°37' W 122°39'0 0.0
2018-Jun-23 05:01N 45°37' W 122°39'0 0.0
2018-Jun-23 04:18N 45°37' W 122°39'0 0.0
2018-Jun-23 03:55N 45°37' W 122°39'0 0.0
2018-Jun-23 03:30N 45°37' W 122°39'0 0.0
2018-Jun-23 02:47N 45°37' W 122°39'0 0.0
2018-Jun-23 02:30N 45°37' W 122°39'0 0.0
2018-Jun-23 02:01N 45°37' W 122°39'0 0.0
2018-Jun-23 01:30N 45°37' W 122°39'0 0.0
2018-Jun-23 01:00N 45°37' W 122°39'0 0.0
2018-Jun-23 00:30N 45°37' W 122°39'0 0.0
2018-Jun-23 00:00N 45°37' W 122°39'0 0.0
2018-Jun-22 23:30N 45°37' W 122°39'0 0.0
2018-Jun-22 23:00N 45°37' W 122°39'0 0.0
2018-Jun-22 22:31N 45°37' W 122°39'0 0.0
2018-Jun-22 22:01N 45°37' W 122°39'0 0.0
2018-Jun-22 21:30N 45°37' W 122°39'0 0.0
2018-Jun-22 21:00N 45°37' W 122°39'0 0.0
2018-Jun-22 20:30N 45°37' W 122°39'0 0.0
2018-Jun-22 20:00N 45°37' W 122°39'0 0.0
2018-Jun-22 19:31N 45°37' W 122°39'0 0.0
2018-Jun-22 19:00N 45°37' W 122°39'0 0.0
2018-Jun-22 18:30N 45°37' W 122°39'0 0.0
2018-Jun-22 18:00N 45°37' W 122°39'0 0.0
2018-Jun-22 17:30N 45°37' W 122°39'0 0.0
2018-Jun-22 17:01N 45°37' W 122°39'0 0.0
2018-Jun-22 16:30N 45°37' W 122°39'0 0.0
2018-Jun-22 16:00N 45°37' W 122°39'0 0.0
2018-Jun-22 15:30N 45°37' W 122°39'0 0.0
2018-Jun-22 15:00N 45°37' W 122°39'0 0.0
2018-Jun-22 14:30N 45°37' W 122°39'0 0.0
2018-Jun-22 14:01N 45°37' W 122°39'0 0.0
2018-Jun-22 13:30N 45°37' W 122°39'0 0.0
2018-Jun-22 13:00N 45°37' W 122°39'0 0.0
2018-Jun-22 12:27N 45°37' W 122°39'0 0.0
2018-Jun-22 12:00N 45°37' W 122°39'0 0.0
2018-Jun-22 11:30N 45°37' W 122°39'0 0.0
2018-Jun-22 11:00N 45°37' W 122°39'0 0.0
2018-Jun-22 10:30N 45°37' W 122°39'0 0.0
2018-Jun-22 10:01N 45°37' W 122°39'0 0.0
2018-Jun-22 09:30N 45°37' W 122°39'0 0.0
2018-Jun-22 09:00N 45°37' W 122°39'0 0.0
2018-Jun-22 08:22N 45°37' W 122°39'0 0.0
2018-Jun-22 08:00N 45°37' W 122°39'0 0.0
2018-Jun-22 07:31N 45°37' W 122°39'0 0.0
2018-Jun-22 06:59N 45°37' W 122°39'0 0.0
2018-Jun-22 06:30N 45°37' W 122°39'0 0.0
2018-Jun-22 05:43N 45°37' W 122°39'0 0.0
2018-Jun-22 05:30N 45°37' W 122°39'0 0.0
2018-Jun-22 05:00N 45°37' W 122°39'0 0.0
2018-Jun-22 04:30N 45°37' W 122°39'0 0.0
2018-Jun-22 04:00N 45°37' W 122°39'0 0.0
2018-Jun-22 03:30N 45°37' W 122°39'0 0.0
2018-Jun-22 03:01N 45°37' W 122°39'0 0.0
2018-Jun-22 02:29N 45°37' W 122°39'0 0.0
2018-Jun-22 02:00N 45°37' W 122°39'0 0.0
2018-Jun-22 01:30N 45°37' W 122°39'0 0.0
2018-Jun-22 00:59N 45°37' W 122°39'0 0.0
2018-Jun-22 00:30N 45°37' W 122°39'0 0.0
2018-Jun-22 00:01N 45°37' W 122°39'0 0.0
2018-Jun-21 23:30N 45°37' W 122°39'0 0.0
2018-Jun-21 23:00N 45°37' W 122°39'0 0.0
2018-Jun-21 22:31N 45°37' W 122°39'0 0.0
2018-Jun-21 22:00N 45°37' W 122°39'0 0.0
2018-Jun-21 21:31N 45°37' W 122°39'0 0.0
2018-Jun-21 21:01N 45°37' W 122°39'0 0.0
2018-Jun-21 20:30N 45°37' W 122°39'0 0.0
2018-Jun-21 20:00N 45°37' W 122°39'0 0.0
2018-Jun-21 19:30N 45°37' W 122°39'0 0.0
2018-Jun-21 19:00N 45°37' W 122°39'0 0.0
2018-Jun-21 18:29N 45°37' W 122°39'0 0.0
2018-Jun-21 18:00N 45°37' W 122°39'0 0.0
2018-Jun-21 17:30N 45°37' W 122°39'0 0.0
2018-Jun-21 17:00N 45°37' W 122°39'0 0.0
2018-Jun-21 16:29N 45°37' W 122°39'0 0.0
2018-Jun-21 16:00N 45°37' W 122°39'0 0.0
2018-Jun-21 15:30N 45°37' W 122°39'0 0.0
2018-Jun-21 15:00N 45°37' W 122°39'0 0.0
2018-Jun-21 14:31N 45°37' W 122°39'0 0.0
2018-Jun-21 14:00N 45°37' W 122°39'0 0.0
2018-Jun-21 13:31N 45°37' W 122°39'0 0.0
2018-Jun-21 13:00N 45°37' W 122°39'0 0.0
2018-Jun-21 12:30N 45°37' W 122°39'0 0.0
2018-Jun-21 11:43N 45°37' W 122°39'0 0.0
2018-Jun-21 11:30N 45°37' W 122°39'0 0.0
2018-Jun-21 11:00N 45°37' W 122°39'0 0.0
2018-Jun-21 10:31N 45°37' W 122°39'0 0.0
2018-Jun-21 10:00N 45°37' W 122°39'0 0.0
2018-Jun-21 09:30N 45°37' W 122°39'0 0.0
2018-Jun-21 08:49N 45°37' W 122°39'0 0.0
2018-Jun-21 08:29N 45°37' W 122°39'0 0.0
2018-Jun-21 08:00N 45°37' W 122°39'0 0.0
2018-Jun-21 07:31N 45°37' W 122°39'0 0.0
2018-Jun-21 06:59N 45°37' W 122°39'0 0.0
2018-Jun-21 06:30N 45°37' W 122°39'0 0.0
2018-Jun-21 05:49N 45°37' W 122°39'0 0.0
2018-Jun-21 05:31N 45°37' W 122°39'0 0.0
2018-Jun-21 05:00N 45°37' W 122°39'0 0.0
2018-Jun-21 04:30N 45°37' W 122°39'0 0.0
2018-Jun-21 04:01N 45°37' W 122°39'0 0.0
2018-Jun-21 03:24N 45°37' W 122°39'0 0.0
2018-Jun-21 03:00N 45°37' W 122°39'0 0.0
2018-Jun-21 02:30N 45°37' W 122°39'0 0.0
2018-Jun-21 01:52N 45°37' W 122°39'0 0.0
2018-Jun-21 01:28N 45°37' W 122°39'0 0.0
2018-Jun-21 00:59N 45°37' W 122°39'0 0.0
2018-Jun-21 00:30N 45°37' W 122°39'0 0.0
2018-Jun-20 23:54N 45°37' W 122°39'0 0.0
2018-Jun-20 23:27N 45°37' W 122°39'0 0.0
2018-Jun-20 22:54N 45°37' W 122°39'0 0.0
2018-Jun-20 22:23N 45°37' W 122°39'0 0.0
2018-Jun-20 21:57N 45°37' W 122°39'0 0.0
2018-Jun-20 21:28N 45°37' W 122°39'0 0.0
2018-Jun-20 21:00N 45°37' W 122°39'0 0.0
2018-Jun-20 20:29N 45°37' W 122°39'0 0.0
2018-Jun-20 19:58N 45°37' W 122°39'0 0.0
2018-Jun-20 19:26N 45°37' W 122°39'0 0.0
2018-Jun-20 19:00N 45°37' W 122°39'0 0.0
2018-Jun-20 18:30N 45°37' W 122°39'0 0.0
2018-Jun-20 18:00N 45°37' W 122°39'0 0.0
2018-Jun-20 17:30N 45°37' W 122°39'0 0.0
2018-Jun-20 16:58N 45°37' W 122°39'0 0.0
2018-Jun-20 16:24N 45°37' W 122°39'0 0.0
2018-Jun-20 15:56N 45°37' W 122°39'0 0.0
2018-Jun-20 15:23N 45°37' W 122°39'0 0.0
2018-Jun-20 14:59N 45°37' W 122°39'0 0.0
2018-Jun-20 14:29N 45°37' W 122°39'0 0.0
2018-Jun-20 14:00N 45°37' W 122°39'0 0.0
2018-Jun-20 13:30N 45°37' W 122°39'0 0.0
2018-Jun-20 12:57N 45°37' W 122°39'0 0.0
2018-Jun-20 12:24N 45°37' W 122°39'0 0.0
2018-Jun-20 11:59N 45°37' W 122°39'0 0.0
2018-Jun-20 11:28N 45°37' W 122°39'0 0.0
2018-Jun-20 10:46N 45°37' W 122°39'0 0.0
2018-Jun-20 10:30N 45°37' W 122°39'0 0.0
2018-Jun-20 09:58N 45°37' W 122°39'0 0.0
2018-Jun-20 09:30N 45°37' W 122°39'0 0.0
2018-Jun-20 09:00N 45°37' W 122°39'0 0.0
2018-Jun-20 08:30N 45°37' W 122°39'0 0.0
2018-Jun-20 08:01N 45°37' W 122°39'0 0.0
2018-Jun-20 07:30N 45°37' W 122°39'0 0.0
2018-Jun-20 06:59N 45°37' W 122°39'0 0.0
2018-Jun-20 05:35N 45°37' W 122°39'0 0.0
2018-Jun-20 05:30N 45°37' W 122°39'0 0.0
2018-Jun-20 05:00N 45°37' W 122°39'0 0.0
2018-Jun-20 04:31N 45°37' W 122°39'0 0.0
2018-Jun-20 04:00N 45°37' W 122°39'0 0.0
2018-Jun-20 03:27N 45°37' W 122°39'0 0.0
2018-Jun-20 03:00N 45°37' W 122°39'0 0.0
2018-Jun-20 02:30N 45°37' W 122°39'0 0.0
2018-Jun-20 02:00N 45°37' W 122°39'0 0.0
2018-Jun-20 01:30N 45°37' W 122°39'0 0.0
2018-Jun-20 01:00N 45°37' W 122°39'0 0.0
2018-Jun-20 00:30N 45°37' W 122°39'0 0.0
2018-Jun-20 00:00N 45°37' W 122°39'0 0.0
2018-Jun-19 23:29N 45°37' W 122°39'0 0.0
2018-Jun-19 22:59N 45°37' W 122°39'0 0.0
2018-Jun-19 22:30N 45°37' W 122°39'0 0.0
2018-Jun-19 22:00N 45°37' W 122°39'0 0.0
2018-Jun-19 21:30N 45°37' W 122°39'0 0.0
2018-Jun-19 21:00N 45°37' W 122°39'0 0.0
2018-Jun-19 20:29N 45°37' W 122°39'0 0.0
2018-Jun-19 20:00N 45°37' W 122°39'0 0.0
2018-Jun-19 19:30N 45°37' W 122°39'0 0.0
2018-Jun-19 18:59N 45°37' W 122°39'0 0.0
2018-Jun-19 18:30N 45°37' W 122°39'0 0.0
2018-Jun-19 17:55N 45°37' W 122°39'0 0.0
2018-Jun-19 17:31N 45°37' W 122°39'0 0.0
2018-Jun-19 17:01N 45°37' W 122°39'0 0.0
2018-Jun-19 16:07N 45°37' W 122°39'0 0.0
2018-Jun-19 16:00N 45°37' W 122°39'0 0.0
2018-Jun-19 15:22N 45°37' W 122°39'0 0.0
2018-Jun-19 15:00N 45°37' W 122°39'0 0.0
2018-Jun-19 14:26N 45°37' W 122°39'0 0.0
2018-Jun-19 14:00N 45°37' W 122°39'0 0.0
2018-Jun-19 13:30N 45°37' W 122°39'0 0.0
2018-Jun-19 13:00N 45°37' W 122°39'0 0.0
2018-Jun-19 12:30N 45°37' W 122°39'0 0.0
2018-Jun-19 12:01N 45°37' W 122°39'0 0.0
2018-Jun-19 11:28N 45°37' W 122°39'0 0.0
2018-Jun-19 10:59N 45°37' W 122°39'0 0.0
2018-Jun-19 10:29N 45°37' W 122°39'0 0.0
2018-Jun-19 10:00N 45°37' W 122°39'0 0.0
2018-Jun-19 09:30N 45°37' W 122°39'0 0.0
2018-Jun-19 09:00N 45°37' W 122°39'0 0.0
2018-Jun-19 08:30N 45°37' W 122°39'0 0.0
2018-Jun-19 07:59N 45°37' W 122°39'0 0.0
2018-Jun-19 07:30N 45°37' W 122°39'0 0.0
2018-Jun-19 07:00N 45°37' W 122°39'0 0.0
2018-Jun-19 06:30N 45°37' W 122°39'0 0.0
2018-Jun-19 06:01N 45°37' W 122°39'0 0.0
2018-Jun-19 05:30N 45°37' W 122°39'0 0.0
2018-Jun-19 05:00N 45°37' W 122°39'0 0.0
2018-Jun-19 04:29N 45°37' W 122°39'0 0.0
2018-Jun-19 04:00N 45°37' W 122°39'0 0.0
2018-Jun-19 03:31N 45°37' W 122°39'0 0.0
2018-Jun-19 03:01N 45°37' W 122°39'0 0.0
2018-Jun-19 02:30N 45°37' W 122°39'0 0.0
2018-Jun-19 02:00N 45°37' W 122°39'0 0.0
2018-Jun-19 01:30N 45°37' W 122°39'0 0.0
2018-Jun-19 01:00N 45°37' W 122°39'0 0.0
2018-Jun-19 00:29N 45°37' W 122°39'0 0.0
2018-Jun-19 00:00N 45°37' W 122°39'0 0.0
2018-Jun-18 23:31N 45°37' W 122°39'0 0.0
2018-Jun-18 22:59N 45°37' W 122°39'0 0.0
2018-Jun-18 22:30N 45°37' W 122°39'0 0.0
2018-Jun-18 22:00N 45°37' W 122°39'0 0.0
2018-Jun-18 21:30N 45°37' W 122°39'0 0.0
2018-Jun-18 21:01N 45°37' W 122°39'0 0.0
2018-Jun-18 20:30N 45°37' W 122°39'0 0.0
2018-Jun-18 20:00N 45°37' W 122°39'0 0.0
2018-Jun-18 19:30N 45°37' W 122°39'0 0.0
2018-Jun-18 19:00N 45°37' W 122°39'0 0.0
2018-Jun-18 18:30N 45°37' W 122°39'0 0.0
2018-Jun-18 18:00N 45°37' W 122°39'0 0.0
2018-Jun-18 17:20N 45°37' W 122°39'0 0.0
2018-Jun-18 16:59N 45°37' W 122°39'0 0.0
2018-Jun-18 16:30N 45°37' W 122°39'0 0.0
2018-Jun-18 16:00N 45°37' W 122°39'0 0.0
2018-Jun-18 15:30N 45°37' W 122°39'0 0.0
2018-Jun-18 15:00N 45°37' W 122°39'0 0.0
2018-Jun-18 14:31N 45°37' W 122°39'0 0.0
2018-Jun-18 14:00N 45°37' W 122°39'0 0.0
2018-Jun-18 13:31N 45°37' W 122°39'0 0.0
2018-Jun-18 13:00N 45°37' W 122°39'0 0.0
2018-Jun-18 12:30N 45°37' W 122°39'0 0.0
2018-Jun-18 12:00N 45°37' W 122°39'0 0.0
2018-Jun-18 11:30N 45°37' W 122°39'0 0.0
2018-Jun-18 11:00N 45°37' W 122°39'0 0.0
2018-Jun-18 10:31N 45°37' W 122°39'0 0.0
2018-Jun-18 10:00N 45°37' W 122°39'0 0.0
2018-Jun-18 09:23N 45°37' W 122°39'0 0.0
2018-Jun-18 09:00N 45°37' W 122°39'0 0.0
2018-Jun-18 08:30N 45°37' W 122°39'0 0.0
2018-Jun-18 08:00N 45°37' W 122°39'0 0.0
2018-Jun-18 07:30N 45°37' W 122°39'0 0.0
2018-Jun-18 06:59N 45°37' W 122°39'0 0.0
2018-Jun-18 06:30N 45°37' W 122°39'0 0.0
2018-Jun-18 06:01N 45°37' W 122°39'0 0.0
2018-Jun-18 05:30N 45°37' W 122°39'0 0.0
2018-Jun-18 05:00N 45°37' W 122°39'0 0.0
2018-Jun-18 04:30N 45°37' W 122°39'0 0.0
2018-Jun-18 04:00N 45°37' W 122°39'0 0.0
2018-Jun-18 03:30N 45°37' W 122°39'0 0.0
2018-Jun-18 02:59N 45°37' W 122°39'0 0.0
2018-Jun-18 02:06N 45°37' W 122°39'0 0.0
2018-Jun-18 02:00N 45°37' W 122°39'0 0.0
2018-Jun-18 01:30N 45°37' W 122°39'0 0.0
2018-Jun-18 01:01N 45°37' W 122°39'0 0.0
2018-Jun-18 00:30N 45°37' W 122°39'0 0.0
2018-Jun-18 00:00N 45°37' W 122°39'0 0.0
2018-Jun-17 23:29N 45°37' W 122°39'0 0.0
2018-Jun-17 22:56N 45°37' W 122°39'0 0.0
2018-Jun-17 22:30N 45°37' W 122°39'0 0.0
2018-Jun-17 22:01N 45°37' W 122°39'0 0.0
2018-Jun-17 21:21N 45°37' W 122°39'0 0.0
2018-Jun-17 20:57N 45°37' W 122°39'0 0.0
2018-Jun-17 20:30N 45°37' W 122°39'0 0.0
2018-Jun-17 20:01N 45°37' W 122°39'0 0.0
2018-Jun-17 19:29N 45°37' W 122°39'0 0.0
2018-Jun-17 19:00N 45°37' W 122°39'0 0.0
2018-Jun-17 18:30N 45°37' W 122°39'0 0.0
2018-Jun-17 17:59N 45°37' W 122°39'0 0.0
2018-Jun-17 17:30N 45°37' W 122°39'0 0.0
2018-Jun-17 17:00N 45°37' W 122°39'0 0.0
2018-Jun-17 16:29N 45°37' W 122°39'0 0.0
2018-Jun-17 15:56N 45°37' W 122°39'0 0.0
2018-Jun-17 15:28N 45°37' W 122°39'0 0.0
2018-Jun-17 14:59N 45°37' W 122°39'0 0.0
2018-Jun-17 14:31N 45°37' W 122°39'0 0.0
2018-Jun-17 14:01N 45°37' W 122°39'0 0.0
2018-Jun-17 13:30N 45°37' W 122°39'0 0.0
2018-Jun-17 13:00N 45°37' W 122°39'0 0.0
2018-Jun-17 12:30N 45°37' W 122°39'0 0.0
2018-Jun-17 11:59N 45°37' W 122°39'0 0.0
2018-Jun-17 11:30N 45°37' W 122°39'0 0.0
2018-Jun-17 10:59N 45°37' W 122°39'0 0.0
2018-Jun-17 10:30N 45°37' W 122°39'0 0.0
2018-Jun-17 09:44N 45°37' W 122°39'0 0.0
2018-Jun-17 09:31N 45°37' W 122°39'0 0.0
2018-Jun-17 09:00N 45°37' W 122°39'0 0.0
2018-Jun-17 08:30N 45°37' W 122°39'0 0.0
2018-Jun-17 08:00N 45°37' W 122°39'0 0.0
2018-Jun-17 07:30N 45°37' W 122°39'0 0.0
2018-Jun-17 06:59N 45°37' W 122°39'0 0.0
2018-Jun-17 06:31N 45°37' W 122°39'0 0.0
2018-Jun-17 06:00N 45°37' W 122°39'0 0.0
2018-Jun-17 05:31N 45°37' W 122°39'0 0.0
2018-Jun-17 05:00N 45°37' W 122°39'0 0.0
2018-Jun-17 04:30N 45°37' W 122°39'0 0.0
2018-Jun-17 04:00N 45°37' W 122°39'0 0.0
2018-Jun-17 03:29N 45°37' W 122°39'0 0.0
2018-Jun-17 03:00N 45°37' W 122°39'0 0.0
2018-Jun-17 02:30N 45°37' W 122°39'0 0.0
2018-Jun-17 02:00N 45°37' W 122°39'0 0.0
2018-Jun-17 01:31N 45°37' W 122°39'0 0.0
2018-Jun-17 01:01N 45°37' W 122°39'0 0.0
2018-Jun-17 00:31N 45°37' W 122°39'0 0.0
2018-Jun-17 00:00N 45°37' W 122°39'0 0.0
2018-Jun-16 23:30N 45°37' W 122°39'0 0.0
2018-Jun-16 23:00N 45°37' W 122°39'0 0.0
2018-Jun-16 22:30N 45°37' W 122°39'0 0.0
2018-Jun-16 22:00N 45°37' W 122°39'0 0.0
2018-Jun-16 21:31N 45°37' W 122°39'0 0.0
2018-Jun-16 21:00N 45°37' W 122°39'0 0.0
2018-Jun-16 20:30N 45°37' W 122°39'0 0.0
2018-Jun-16 20:00N 45°37' W 122°39'0 0.0
2018-Jun-16 19:28N 45°37' W 122°39'0 0.0
2018-Jun-16 19:00N 45°37' W 122°39'0 0.0
2018-Jun-16 18:30N 45°37' W 122°39'0 0.0
2018-Jun-16 18:00N 45°37' W 122°39'0 0.0
2018-Jun-16 17:30N 45°37' W 122°39'0 0.0
2018-Jun-16 17:00N 45°37' W 122°39'0 0.0
2018-Jun-16 16:31N 45°37' W 122°39'0 0.0
2018-Jun-16 16:00N 45°37' W 122°39'0 0.0
2018-Jun-16 15:30N 45°37' W 122°39'0 0.0
2018-Jun-16 15:01N 45°37' W 122°39'0 0.0
2018-Jun-16 14:31N 45°37' W 122°39'0 0.0
2018-Jun-16 14:00N 45°37' W 122°39'0 0.0
2018-Jun-16 13:30N 45°37' W 122°39'0 0.0
2018-Jun-16 13:00N 45°37' W 122°39'0 0.0
2018-Jun-16 12:30N 45°37' W 122°39'0 0.0
2018-Jun-16 12:00N 45°37' W 122°39'0 0.0
2018-Jun-16 11:30N 45°37' W 122°39'0 0.0
2018-Jun-16 11:00N 45°37' W 122°39'0 0.0
2018-Jun-16 10:30N 45°37' W 122°39'0 0.0
2018-Jun-16 10:00N 45°37' W 122°39'0 0.0
2018-Jun-16 09:30N 45°37' W 122°39'0 0.0
2018-Jun-16 09:00N 45°37' W 122°39'0 0.0
2018-Jun-16 08:30N 45°37' W 122°39'0 0.0
2018-Jun-16 08:01N 45°37' W 122°39'0 0.0
2018-Jun-16 07:31N 45°37' W 122°39'0 0.0
2018-Jun-16 06:59N 45°37' W 122°39'0 0.0
2018-Jun-16 06:30N 45°37' W 122°39'0 0.0
2018-Jun-16 06:00N 45°37' W 122°39'0 0.0
2018-Jun-16 05:30N 45°37' W 122°39'0 0.0
2018-Jun-16 05:00N 45°37' W 122°39'0 0.0
2018-Jun-16 04:28N 45°37' W 122°39'0 0.0
2018-Jun-16 03:51N 45°37' W 122°39'0 0.0
2018-Jun-16 03:30N 45°37' W 122°39'0 0.0
2018-Jun-16 03:00N 45°37' W 122°39'0 0.0
2018-Jun-16 02:30N 45°37' W 122°39'0 0.0
2018-Jun-16 01:53N 45°37' W 122°39'0 0.0
2018-Jun-16 01:30N 45°37' W 122°39'0 0.0
2018-Jun-16 01:00N 45°37' W 122°39'0 0.0
2018-Jun-16 00:30N 45°37' W 122°39'0 0.0
2018-Jun-16 00:00N 45°37' W 122°39'0 0.0
2018-Jun-15 23:31N 45°37' W 122°39'0 0.0
2018-Jun-15 23:00N 45°37' W 122°39'1 2.0
2018-Jun-15 22:31N 45°37' W 122°40'2 3.5
2018-Jun-15 22:00N 45°38' W 122°42'3 5.2
2018-Jun-15 21:30N 45°39' W 122°45'3 5.7
2018-Jun-15 21:00N 45°37' W 122°47'3 6.8
2018-Jun-15 20:30N 45°34' W 122°44'3 6.7
2018-Jun-15 20:01N 45°32' W 122°40'2 3.3
2018-Jun-15 19:30N 45°30' W 122°40'0 0.2
2018-Jun-15 19:00N 45°30' W 122°40'2 4.5
2018-Jun-15 18:30N 45°32' W 122°41'4 8.0
2018-Jun-15 18:01N 45°35' W 122°45'4 7.8
2018-Jun-15 17:30N 45°39' W 122°47'4 8.9
2018-Jun-15 17:00N 45°37' W 122°41'1 2.6
2018-Jun-15 16:30N 45°37' W 122°39'0 0.0
2018-Jun-15 15:51N 45°37' W 122°39'0 0.0
2018-Jun-15 15:30N 45°37' W 122°39'0 0.0
2018-Jun-15 15:00N 45°37' W 122°39'0 0.0
2018-Jun-15 14:30N 45°37' W 122°39'0 0.0
2018-Jun-15 14:01N 45°37' W 122°39'0 0.0
2018-Jun-15 13:30N 45°37' W 122°39'0 0.0
2018-Jun-15 13:00N 45°37' W 122°39'0 0.0
2018-Jun-15 12:30N 45°37' W 122°39'0 0.0
2018-Jun-15 11:49N 45°37' W 122°39'0 0.0
2018-Jun-15 11:30N 45°37' W 122°39'0 0.0
2018-Jun-15 11:00N 45°37' W 122°39'0 0.0
2018-Jun-15 10:30N 45°37' W 122°39'0 0.0
2018-Jun-15 09:37N 45°37' W 122°39'0 0.0
2018-Jun-15 09:30N 45°37' W 122°39'0 0.0
2018-Jun-15 09:00N 45°37' W 122°39'0 0.0
2018-Jun-15 08:30N 45°37' W 122°39'0 0.0
2018-Jun-15 08:00N 45°37' W 122°39'0 0.0
2018-Jun-15 07:19N 45°37' W 122°39'0 0.0
2018-Jun-15 06:59N 45°37' W 122°39'0 0.0
2018-Jun-15 06:30N 45°37' W 122°39'0 0.0
2018-Jun-15 06:00N 45°37' W 122°39'0 0.0
2018-Jun-15 05:30N 45°37' W 122°39'  

Dump ship's entire track history